Time;durP1;ratioP1;P1;durP2;ratioP2;P2;SDS_P1;SDS_P2;PMS_P1;PMS_P2;Temp;Humidity;BMP_temperature;BMP_pressure;BME280_temperature;BME280_humidity;BME280_pressure;Samples;Min_cycle;Max_cycle;Signal;HPM_P1;HPM_P2
2021/08/04 00:00:36;;;;;;;1.95;1.50;;;15.30;99.90;;;;;;6223901;23;20468;-90
2021/08/04 00:03:06;;;;;;;1.50;1.30;;;15.30;99.90;;;;;;6213753;22;20043;-89
2021/08/04 00:05:36;;;;;;;1.90;1.38;;;15.30;99.90;;;;;;6245094;23;20111;-91
2021/08/04 00:08:06;;;;;;;1.38;1.27;;;15.30;99.90;;;;;;6254399;23;20020;-91
2021/08/04 00:10:38;;;;;;;2.05;1.30;;;15.30;99.90;;;;;;6232423;22;20020;-90
2021/08/04 00:13:09;;;;;;;2.20;1.27;;;15.30;99.90;;;;;;6229624;23;21154;-90
2021/08/04 00:15:36;;;;;;;2.15;1.20;;;15.30;99.90;;;;;;6245459;23;20012;-91
2021/08/04 00:18:06;;;;;;;1.40;1.20;;;15.30;99.90;;;;;;6245032;23;20020;-91
2021/08/04 00:20:34;;;;;;;2.55;1.23;;;15.30;99.90;;;;;;6246504;23;20032;-90
2021/08/04 00:23:02;;;;;;;1.58;1.20;;;15.30;99.90;;;;;;6266410;22;20024;-91
2021/08/04 00:25:29;;;;;;;1.40;1.30;;;15.30;99.90;;;;;;6230852;22;20015;-90
2021/08/04 00:28:02;;;;;;;1.65;1.30;;;15.30;99.90;;;;;;6244113;23;20050;-91
2021/08/04 00:30:29;;;;;;;1.23;1.13;;;15.30;99.90;;;;;;6242805;22;20044;-90
2021/08/04 00:32:57;;;;;;;2.55;1.25;;;15.30;99.90;;;;;;6243798;23;20375;-90
2021/08/04 00:35:27;;;;;;;4.13;1.20;;;15.30;99.90;;;;;;6228954;22;20024;-91
2021/08/04 00:38:12;;;;;;;2.58;1.10;;;15.30;99.90;;;;;;6225395;23;20012;-88
2021/08/04 00:40:44;;;;;;;2.33;1.27;;;15.30;99.90;;;;;;6212720;23;20023;-91
2021/08/04 00:43:11;;;;;;;2.80;1.23;;;15.20;99.90;;;;;;6214726;22;20107;-91
2021/08/04 00:45:38;;;;;;;1.20;1.10;;;15.30;99.90;;;;;;6231975;23;20074;-91
2021/08/04 00:48:06;;;;;;;1.85;1.50;;;15.20;99.90;;;;;;6243132;22;20024;-91
2021/08/04 00:50:36;;;;;;;1.30;1.20;;;15.20;99.90;;;;;;6243901;23;20024;-90
2021/08/04 00:53:24;;;;;;;2.83;1.30;;;15.20;99.90;;;;;;6244674;23;20023;-90
2021/08/04 00:56:01;;;;;;;2.83;1.30;;;15.20;99.90;;;;;;6243314;23;20455;-90
2021/08/04 00:58:36;;;;;;;1.58;1.13;;;15.20;99.90;;;;;;6243452;22;20020;-90
2021/08/04 01:01:20;;;;;;;1.90;1.15;;;15.20;99.90;;;;;;6243530;23;20020;-90
2021/08/04 01:03:55;;;;;;;2.35;1.30;;;15.20;99.90;;;;;;6243452;23;20050;-90
2021/08/04 01:06:53;;;;;;;2.88;1.33;;;15.20;99.90;;;;;;6229018;23;20085;-91
2021/08/04 01:09:22;;;;;;;1.45;1.00;;;15.20;99.90;;;;;;6217989;22;20019;-90
2021/08/04 01:11:59;;;;;;;1.00;0.90;;;15.20;99.90;;;;;;6244585;23;20016;-90
2021/08/04 01:14:33;;;;;;;2.13;1.30;;;15.20;99.90;;;;;;6228662;23;20365;-90
2021/08/04 01:17:04;;;;;;;2.92;1.20;;;15.10;99.90;;;;;;6246315;23;20050;-90
2021/08/04 01:19:34;;;;;;;1.33;1.10;;;15.10;99.90;;;;;;6245695;23;20099;-90
2021/08/04 01:22:07;;;;;;;1.38;1.27;;;15.10;99.90;;;;;;6225130;23;20036;-90
2021/08/04 01:24:47;;;;;;;1.80;1.20;;;15.10;99.90;;;;;;6233035;23;20027;-90
2021/08/04 01:27:15;;;;;;;1.13;1.02;;;15.10;99.90;;;;;;6244854;22;20100;-89
2021/08/04 01:29:44;;;;;;;1.00;0.95;;;15.10;99.90;;;;;;6234587;22;20020;-90
2021/08/04 01:32:14;;;;;;;1.67;1.08;;;15.10;99.90;;;;;;6230964;23;20020;-90
2021/08/04 01:34:41;;;;;;;1.13;0.98;;;15.00;99.90;;;;;;6223527;23;20016;-90
2021/08/04 01:37:09;;;;;;;1.17;1.00;;;15.10;99.90;;;;;;6232408;22;20023;-90
2021/08/04 01:39:38;;;;;;;1.20;1.10;;;15.10;99.90;;;;;;6229680;23;20016;-90
2021/08/04 01:42:05;;;;;;;1.83;1.00;;;15.00;99.90;;;;;;6265770;22;20016;-87
2021/08/04 01:44:34;;;;;;;2.05;0.90;;;15.00;99.90;;;;;;6250562;22;20027;-88
2021/08/04 01:47:01;;;;;;;2.22;1.10;;;15.00;99.90;;;;;;6245356;23;20028;-88
2021/08/04 01:49:30;;;;;;;1.33;1.00;;;15.00;99.90;;;;;;6246180;22;20012;-89
2021/08/04 01:51:57;;;;;;;1.23;1.00;;;15.00;99.90;;;;;;6246958;22;20024;-90
2021/08/04 01:54:28;;;;;;;1.02;0.93;;;15.00;99.90;;;;;;6244170;22;20095;-90
2021/08/04 01:56:55;;;;;;;0.95;0.80;;;15.00;99.90;;;;;;6231274;22;20456;-89
2021/08/04 01:59:23;;;;;;;1.13;1.00;;;15.00;99.90;;;;;;6242525;22;20432;-89
2021/08/04 02:01:54;;;;;;;1.50;1.10;;;15.00;99.90;;;;;;6247439;22;20064;-89
2021/08/04 02:04:21;;;;;;;1.15;1.00;;;15.00;99.90;;;;;;6244924;22;20020;-90
2021/08/04 02:06:54;;;;;;;1.65;1.42;;;15.00;99.90;;;;;;6245751;23;20026;-89
2021/08/04 02:09:37;;;;;;;1.95;1.27;;;15.00;99.90;;;;;;6246451;22;20013;-89
2021/08/04 02:12:10;;;;;;;1.30;1.10;;;14.90;99.90;;;;;;6245803;22;20024;-90
2021/08/04 02:14:43;;;;;;;1.42;1.00;;;14.90;99.90;;;;;;6245419;23;20432;-89
2021/08/04 02:17:22;;;;;;;2.65;1.20;;;14.90;99.90;;;;;;6231960;22;20016;-89
2021/08/04 02:20:02;;;;;;;2.15;1.60;;;14.90;99.90;;;;;;6246627;22;20022;-90
2021/08/04 02:22:36;;;;;;;2.33;1.38;;;14.90;99.90;;;;;;6243969;23;20016;-90
2021/08/04 02:25:07;;;;;;;2.75;1.40;;;14.90;99.90;;;;;;6246409;22;20505;-90
2021/08/04 02:27:37;;;;;;;2.83;1.52;;;14.90;99.90;;;;;;6245199;22;20022;-90
2021/08/04 02:30:07;;;;;;;2.70;1.50;;;14.90;99.90;;;;;;6245568;23;20030;-90
2021/08/04 02:32:36;;;;;;;2.30;1.50;;;14.80;99.90;;;;;;6244274;23;20038;-89
2021/08/04 02:35:04;;;;;;;3.72;1.77;;;14.80;99.90;;;;;;6211304;23;20040;-89
2021/08/04 02:37:33;;;;;;;2.42;1.63;;;14.80;99.90;;;;;;6245994;22;20044;-89
2021/08/04 02:40:06;;;;;;;5.10;2.10;;;14.80;99.90;;;;;;6245468;23;20510;-90
2021/08/04 02:42:34;;;;;;;1.92;1.67;;;14.80;99.90;;;;;;6245045;23;20026;-90
2021/08/04 02:45:04;;;;;;;4.20;1.92;;;14.80;99.90;;;;;;6233477;23;20024;-90
2021/08/04 02:47:36;;;;;;;3.47;1.95;;;14.80;99.90;;;;;;6223540;23;20064;-90
2021/08/04 02:50:07;;;;;;;2.33;1.80;;;14.80;99.90;;;;;;6226847;23;20078;-90
2021/08/04 02:52:34;;;;;;;1.90;1.70;;;14.80;99.90;;;;;;6230006;23;20039;-90
2021/08/04 02:55:09;;;;;;;2.10;1.88;;;14.80;99.90;;;;;;6232907;22;20376;-89
2021/08/04 02:57:43;;;;;;;3.05;2.00;;;14.80;99.90;;;;;;6245403;23;20450;-89
2021/08/04 03:00:11;;;;;;;2.20;2.00;;;14.80;99.90;;;;;;6233194;22;20518;-90
2021/08/04 03:02:40;;;;;;;3.72;2.00;;;14.80;99.90;;;;;;6254734;23;20024;-90
2021/08/04 03:05:13;;;;;;;3.87;2.00;;;14.80;99.90;;;;;;6232435;22;20070;-89
2021/08/04 03:07:42;;;;;;;3.88;1.70;;;14.80;99.90;;;;;;6244841;23;20371;-90
2021/08/04 03:10:11;;;;;;;3.22;1.92;;;14.80;99.90;;;;;;6248388;22;20020;-90
2021/08/04 03:12:38;;;;;;;2.17;1.65;;;14.80;99.90;;;;;;6251901;23;20091;-90
2021/08/04 03:15:06;;;;;;;2.93;1.67;;;14.80;99.90;;;;;;6229981;22;20082;-90
2021/08/04 03:17:34;;;;;;;2.47;1.70;;;14.80;99.90;;;;;;6245064;23;20443;-90
2021/08/04 03:20:01;;;;;;;2.55;1.85;;;14.80;99.90;;;;;;6245240;23;20086;-90
2021/08/04 03:22:30;;;;;;;3.10;1.70;;;14.80;99.90;;;;;;6215782;23;20042;-89
2021/08/04 03:24:57;;;;;;;2.63;1.70;;;14.70;99.90;;;;;;6225483;23;20016;-90
2021/08/04 03:27:24;;;;;;;5.18;1.75;;;14.70;99.90;;;;;;6244141;22;20035;-90
2021/08/04 03:29:52;;;;;;;4.78;2.10;;;14.70;99.90;;;;;;6244386;23;20024;-89
2021/08/04 03:32:19;;;;;;;2.30;1.73;;;14.70;99.90;;;;;;6229677;22;20091;-89
2021/08/04 03:34:46;;;;;;;2.28;1.80;;;14.70;99.90;;;;;;6231128;23;20521;-89
2021/08/04 03:37:13;;;;;;;3.22;1.85;;;14.70;99.90;;;;;;6229802;22;20066;-90
2021/08/04 03:39:42;;;;;;;2.50;1.92;;;14.70;99.90;;;;;;6244444;23;20338;-90
2021/08/04 03:42:09;;;;;;;3.75;2.03;;;14.70;99.90;;;;;;6243770;22;20099;-89
2021/08/04 03:44:36;;;;;;;2.20;1.98;;;14.70;99.90;;;;;;6244081;23;20039;-89
2021/08/04 03:47:04;;;;;;;2.20;1.70;;;14.70;99.90;;;;;;6244534;23;20171;-89
2021/08/04 03:49:31;;;;;;;2.78;1.75;;;14.70;99.90;;;;;;6244386;23;20046;-89
2021/08/04 03:51:58;;;;;;;4.57;2.17;;;14.70;99.90;;;;;;6244780;23;20020;-90
2021/08/04 03:54:27;;;;;;;2.78;1.90;;;14.70;99.90;;;;;;6243299;22;20356;-89
2021/08/04 03:56:54;;;;;;;2.33;1.92;;;14.70;99.90;;;;;;6246035;22;20016;-89
2021/08/04 03:59:22;;;;;;;4.03;2.05;;;14.70;99.90;;;;;;6243557;22;20028;-89
2021/08/04 04:01:49;;;;;;;4.35;2.00;;;14.70;99.90;;;;;;6245941;22;20012;-89
2021/08/04 04:04:17;;;;;;;2.90;1.55;;;14.70;99.90;;;;;;6243073;22;20095;-88
2021/08/04 04:06:44;;;;;;;2.75;2.00;;;14.70;99.90;;;;;;6244512;23;20391;-89
2021/08/04 04:09:11;;;;;;;3.08;1.90;;;14.70;99.90;;;;;;6243409;22;20020;-90
2021/08/04 04:11:38;;;;;;;4.55;2.20;;;14.70;99.90;;;;;;6243785;23;20020;-90
2021/08/04 04:14:05;;;;;;;2.78;1.88;;;14.70;99.90;;;;;;6243726;22;20038;-90
2021/08/04 04:16:32;;;;;;;3.03;2.05;;;14.70;99.90;;;;;;6244079;23;20012;-90
2021/08/04 04:19:00;;;;;;;3.67;2.00;;;14.70;99.90;;;;;;6246176;22;20020;-89
2021/08/04 04:21:27;;;;;;;5.03;2.13;;;14.70;99.90;;;;;;6226099;22;20075;-87
2021/08/04 04:23:56;;;;;;;2.15;1.70;;;14.70;99.90;;;;;;6253406;22;20038;-90
2021/08/04 04:26:23;;;;;;;3.15;1.63;;;14.60;99.90;;;;;;6243165;22;20016;-90
2021/08/04 04:28:59;;;;;;;2.03;1.70;;;14.60;99.90;;;;;;6244522;23;20020;-90
2021/08/04 04:31:33;;;;;;;2.55;1.98;;;14.60;99.90;;;;;;6217144;23;20386;-89
2021/08/04 04:34:02;;;;;;;2.80;1.77;;;14.60;99.90;;;;;;6228737;22;20015;-89
2021/08/04 04:36:38;;;;;;;3.05;1.90;;;14.70;99.90;;;;;;6229528;22;20016;-89
2021/08/04 04:39:05;;;;;;;3.50;1.92;;;14.60;99.90;;;;;;6226175;22;20447;-89
2021/08/04 04:41:37;;;;;;;2.50;2.30;;;14.60;99.90;;;;;;6249136;22;20039;-90
2021/08/04 04:44:05;;;;;;;2.42;2.05;;;14.60;99.90;;;;;;6238676;23;20016;-90
2021/08/04 04:46:32;;;;;;;3.65;2.17;;;14.60;99.90;;;;;;6244411;23;20086;-90
2021/08/04 04:48:59;;;;;;;3.95;2.53;;;14.60;99.90;;;;;;6243894;23;20440;-90
2021/08/04 04:51:26;;;;;;;3.70;2.28;;;14.60;99.90;;;;;;6245479;22;20020;-90
2021/08/04 04:53:53;;;;;;;4.80;2.42;;;14.60;99.90;;;;;;6234414;23;20051;-90
2021/08/04 04:56:20;;;;;;;2.40;2.20;;;14.60;99.90;;;;;;6245513;22;20121;-90
2021/08/04 04:58:47;;;;;;;2.70;2.38;;;14.60;99.90;;;;;;6215659;23;20026;-90
2021/08/04 05:01:15;;;;;;;3.70;2.50;;;14.60;99.90;;;;;;6241940;22;20096;-89
2021/08/04 05:03:42;;;;;;;2.30;2.10;;;14.60;99.90;;;;;;6247824;22;20019;-90
2021/08/04 05:06:09;;;;;;;3.45;2.30;;;14.60;99.90;;;;;;6245489;22;20024;-89
2021/08/04 05:08:36;;;;;;;2.30;2.10;;;14.60;99.90;;;;;;6245815;23;20040;-90
2021/08/04 05:11:04;;;;;;;3.17;2.20;;;14.60;99.90;;;;;;6247736;22;20020;-90
2021/08/04 05:13:40;;;;;;;7.13;2.65;;;14.60;99.90;;;;;;6241750;23;20091;-91
2021/08/04 05:16:07;;;;;;;3.13;2.08;;;14.60;99.90;;;;;;6223714;22;20095;-92
2021/08/04 05:18:34;;;;;;;2.80;2.50;;;14.60;99.90;;;;;;6225117;23;20711;-90
2021/08/04 05:21:04;;;;;;;4.03;2.33;;;14.60;99.90;;;;;;6201734;23;20024;-87
2021/08/04 05:23:31;;;;;;;2.92;2.38;;;14.60;99.90;;;;;;6245852;22;20030;-87
2021/08/04 05:25:58;;;;;;;2.45;2.25;;;14.60;99.90;;;;;;6245611;23;20028;-87
2021/08/04 05:28:25;;;;;;;3.65;2.70;;;14.60;99.90;;;;;;6246301;22;20030;-87
2021/08/04 05:30:52;;;;;;;5.07;2.50;;;14.60;99.90;;;;;;6245673;23;20339;-87
2021/08/04 05:33:19;;;;;;;3.55;2.53;;;14.70;99.90;;;;;;6246369;22;20047;-87
2021/08/04 05:35:46;;;;;;;3.50;2.70;;;14.70;99.90;;;;;;6245956;23;20028;-88
2021/08/04 05:38:13;;;;;;;3.20;2.63;;;14.70;99.90;;;;;;6245101;22;20023;-87
2021/08/04 05:40:40;;;;;;;3.05;2.47;;;14.70;99.90;;;;;;6247236;22;20028;-88
2021/08/04 05:43:07;;;;;;;3.13;2.40;;;14.70;99.90;;;;;;6264111;22;20042;-88
2021/08/04 05:45:36;;;;;;;2.90;2.40;;;14.80;99.90;;;;;;6247927;22;20491;-88
2021/08/04 05:48:05;;;;;;;2.55;2.35;;;14.80;99.90;;;;;;6245098;22;20469;-88
2021/08/04 05:50:33;;;;;;;4.35;2.42;;;14.80;99.90;;;;;;6246996;22;20019;-88
2021/08/04 05:53:01;;;;;;;2.50;2.30;;;14.80;99.90;;;;;;6245405;23;20020;-88
2021/08/04 05:55:29;;;;;;;2.15;1.85;;;14.80;99.90;;;;;;6244742;22;20351;-89
2021/08/04 05:57:56;;;;;;;2.28;2.00;;;14.80;99.90;;;;;;6245210;23;20460;-88
2021/08/04 06:00:23;;;;;;;3.15;2.20;;;14.80;99.90;;;;;;6243921;22;20339;-88
2021/08/04 06:02:50;;;;;;;2.65;1.77;;;14.80;99.90;;;;;;6245730;23;20331;-91
2021/08/04 06:05:18;;;;;;;2.30;2.10;;;14.80;99.90;;;;;;6206533;23;20067;-91
2021/08/04 06:07:45;;;;;;;3.58;2.35;;;14.90;99.90;;;;;;6245452;23;20035;-88
2021/08/04 06:10:13;;;;;;;2.60;2.13;;;14.80;99.90;;;;;;6245633;22;20035;-89
2021/08/04 06:12:40;;;;;;;2.47;2.00;;;14.80;99.90;;;;;;6246539;22;20103;-89
2021/08/04 06:15:08;;;;;;;2.10;1.90;;;14.90;99.90;;;;;;6246421;22;20039;-88
2021/08/04 06:17:35;;;;;;;2.25;2.03;;;14.90;99.90;;;;;;6245291;23;20023;-89
2021/08/04 06:20:04;;;;;;;2.53;2.28;;;14.90;99.90;;;;;;6244813;23;20020;-88
2021/08/04 06:22:31;;;;;;;2.40;2.20;;;14.90;99.90;;;;;;6244612;23;20091;-89
2021/08/04 06:24:58;;;;;;;2.72;2.38;;;14.90;99.90;;;;;;6245546;23;20020;-89
2021/08/04 06:27:25;;;;;;;12.98;10.57;;;14.90;99.90;;;;;;6244663;22;20119;-88
2021/08/04 06:29:52;;;;;;;4.78;4.28;;;15.00;99.90;;;;;;6245966;23;20020;-88
2021/08/04 06:32:19;;;;;;;2.13;1.92;;;15.00;99.90;;;;;;6245603;22;20020;-89
2021/08/04 06:34:46;;;;;;;3.58;2.00;;;15.00;99.90;;;;;;6246875;22;20031;-89
2021/08/04 06:37:13;;;;;;;4.78;2.13;;;15.00;99.90;;;;;;6244135;22;20594;-89
2021/08/04 06:39:42;;;;;;;3.28;1.90;;;15.00;99.90;;;;;;6245326;23;20099;-89
2021/08/04 06:42:16;;;;;;;3.03;2.20;;;15.10;99.90;;;;;;6244335;22;20332;-89
2021/08/04 06:44:43;;;;;;;2.10;1.90;;;15.10;99.90;;;;;;6245554;23;20026;-88
2021/08/04 06:47:10;;;;;;;4.10;2.22;;;15.10;99.90;;;;;;6244399;22;20387;-89
2021/08/04 06:49:37;;;;;;;3.40;2.25;;;15.10;99.90;;;;;;6245306;23;20012;-89
2021/08/04 06:52:05;;;;;;;2.95;2.60;;;15.10;99.90;;;;;;6245884;22;20327;-88
2021/08/04 06:54:32;;;;;;;3.97;2.40;;;15.10;99.90;;;;;;6246711;22;20016;-89
2021/08/04 06:56:59;;;;;;;3.58;2.55;;;15.20;99.90;;;;;;6246987;22;20024;-89
2021/08/04 06:59:26;;;;;;;4.38;2.58;;;15.20;99.90;;;;;;6244007;22;20051;-89
2021/08/04 07:01:53;;;;;;;3.08;2.55;;;15.30;99.90;;;;;;6257249;22;20060;-88
2021/08/04 07:04:20;;;;;;;3.13;2.65;;;15.30;99.90;;;;;;6258337;22;20022;-89
2021/08/04 07:06:58;;;;;;;2.88;2.67;;;15.40;99.90;;;;;;6245169;23;20498;-89
2021/08/04 07:09:28;;;;;;;2.70;2.47;;;15.40;99.90;;;;;;6245562;22;20054;-88
2021/08/04 07:11:55;;;;;;;2.80;2.50;;;15.50;99.90;;;;;;6244916;23;20016;-89
2021/08/04 07:14:22;;;;;;;5.45;2.55;;;15.60;99.90;;;;;;6244386;22;20016;-89
2021/08/04 07:16:50;;;;;;;3.88;2.63;;;15.60;99.90;;;;;;6244998;23;20082;-89
2021/08/04 07:19:17;;;;;;;4.20;2.60;;;15.60;99.90;;;;;;6244411;22;20035;-89
2021/08/04 07:21:44;;;;;;;3.00;2.45;;;15.60;99.90;;;;;;6245494;23;20020;-89
2021/08/04 07:24:12;;;;;;;3.70;2.70;;;15.70;99.90;;;;;;6244380;22;20067;-89
2021/08/04 07:26:40;;;;;;;2.90;2.55;;;15.70;99.90;;;;;;6245411;23;20466;-89
2021/08/04 07:29:08;;;;;;;2.83;2.60;;;15.80;99.90;;;;;;6245361;22;20372;-89
2021/08/04 07:31:36;;;;;;;3.42;2.58;;;15.90;99.90;;;;;;6244594;23;20022;-89
2021/08/04 07:34:03;;;;;;;2.67;2.47;;;16.00;99.90;;;;;;6244605;23;20074;-89
2021/08/04 07:36:32;;;;;;;3.10;2.80;;;16.10;99.90;;;;;;6243550;23;20051;-89
2021/08/04 07:39:00;;;;;;;3.15;2.80;;;16.10;99.90;;;;;;6244462;23;20020;-88
2021/08/04 07:41:26;;;;;;;3.75;2.17;;;16.20;99.90;;;;;;6243954;22;20019;-88
2021/08/04 07:43:54;;;;;;;3.47;2.97;;;16.40;99.90;;;;;;6245077;23;20028;-89
2021/08/04 07:46:24;;;;;;;3.67;2.10;;;16.60;99.90;;;;;;6252616;22;20020;-89
2021/08/04 07:48:51;;;;;;;4.28;1.95;;;16.60;99.90;;;;;;6248334;22;20016;-90
2021/08/04 07:51:18;;;;;;;3.30;1.60;;;16.70;99.90;;;;;;6243148;22;20058;-89
2021/08/04 07:53:45;;;;;;;3.05;1.60;;;16.90;99.90;;;;;;6244235;23;20024;-89
2021/08/04 07:56:12;;;;;;;6.25;1.40;;;17.00;99.90;;;;;;6245984;22;20465;-89
2021/08/04 07:58:39;;;;;;;1.30;1.20;;;17.10;99.90;;;;;;6245301;22;20020;-89
2021/08/04 08:01:06;;;;;;;1.70;1.40;;;17.10;99.90;;;;;;6243815;22;20451;-87
2021/08/04 08:03:34;;;;;;;2.50;1.30;;;17.20;99.90;;;;;;6244503;23;20016;-89
2021/08/04 08:06:02;;;;;;;1.60;1.50;;;17.40;99.90;;;;;;6246747;22;20100;-90
2021/08/04 08:08:29;;;;;;;2.42;1.77;;;17.50;99.90;;;;;;6230351;23;20042;-89
2021/08/04 08:10:56;;;;;;;1.70;1.50;;;17.50;99.90;;;;;;6245943;22;20012;-89
2021/08/04 08:13:23;;;;;;;1.85;1.50;;;17.50;99.90;;;;;;6243752;22;20388;-88
2021/08/04 08:15:51;;;;;;;1.70;1.60;;;17.50;99.90;;;;;;6246431;22;20059;-88
2021/08/04 08:18:18;;;;;;;2.45;1.52;;;17.50;99.90;;;;;;6244254;22;20016;-88
2021/08/04 08:20:46;;;;;;;1.88;1.30;;;17.50;99.90;;;;;;6257444;22;20031;-89
2021/08/04 08:23:14;;;;;;;1.40;1.30;;;17.50;99.90;;;;;;6259796;22;20335;-88
2021/08/04 08:25:41;;;;;;;2.60;1.50;;;17.50;99.90;;;;;;6245192;22;20364;-88
2021/08/04 08:28:09;;;;;;;3.17;1.88;;;17.50;99.90;;;;;;6244157;22;20027;-88
2021/08/04 08:30:37;;;;;;;2.00;1.80;;;17.50;99.90;;;;;;6243749;23;20027;-89
2021/08/04 08:33:04;;;;;;;2.83;2.15;;;17.40;99.90;;;;;;6244910;22;20016;-89
2021/08/04 08:35:34;;;;;;;3.28;2.17;;;17.40;99.90;;;;;;6246074;22;20043;-90
2021/08/04 08:38:01;;;;;;;3.47;2.60;;;17.40;99.90;;;;;;6243577;23;20020;-88
2021/08/04 08:40:29;;;;;;;3.55;2.70;;;17.40;99.90;;;;;;6243473;22;20166;-89
2021/08/04 08:42:59;;;;;;;3.33;2.92;;;17.40;99.90;;;;;;6245278;22;20439;-88
2021/08/04 08:45:26;;;;;;;4.15;3.00;;;17.40;99.90;;;;;;6244066;22;20048;-87
2021/08/04 08:47:53;;;;;;;3.08;2.78;;;17.40;99.90;;;;;;6241694;23;20032;-87
2021/08/04 08:50:25;;;;;;;4.45;3.35;;;17.50;99.90;;;;;;6243233;22;20023;-87
2021/08/04 08:52:54;;;;;;;3.50;3.20;;;17.50;99.90;;;;;;6241600;23;20456;-87
2021/08/04 08:55:22;;;;;;;5.93;3.95;;;17.50;99.90;;;;;;6241762;22;20430;-87
2021/08/04 08:57:49;;;;;;;7.03;3.70;;;17.60;99.90;;;;;;6241320;23;20451;-87
2021/08/04 09:00:17;;;;;;;5.22;3.95;;;17.60;99.90;;;;;;6239945;22;20024;-87
2021/08/04 09:02:44;;;;;;;6.80;4.47;;;17.50;99.90;;;;;;6242544;22;20034;-88
2021/08/04 09:05:13;;;;;;;3.50;2.92;;;17.40;99.90;;;;;;6240145;22;20036;-87
2021/08/04 09:07:43;;;;;;;5.50;2.90;;;17.20;99.90;;;;;;6241221;23;20312;-88
2021/08/04 09:10:27;;;;;;;5.03;3.00;;;17.10;99.90;;;;;;6241146;22;20051;-88
2021/08/04 09:12:57;;;;;;;4.85;3.60;;;17.10;99.90;;;;;;6241239;23;20043;-88
2021/08/04 09:15:25;;;;;;;4.35;3.53;;;17.10;99.90;;;;;;6241548;22;20039;-87
2021/08/04 09:18:04;;;;;;;4.75;3.10;;;17.20;99.90;;;;;;6245066;22;20355;-87
2021/08/04 09:20:53;;;;;;;3.40;3.00;;;17.30;99.90;;;;;;6241842;23;20020;-88
2021/08/04 09:23:27;;;;;;;3.90;2.78;;;17.40;99.90;;;;;;6244228;22;20024;-86
2021/08/04 09:26:10;;;;;;;3.70;2.13;;;17.70;99.90;;;;;;6243082;23;20020;-86
2021/08/04 09:28:55;;;;;;;3.13;1.98;;;17.80;99.90;;;;;;6242738;23;20020;-87
2021/08/04 09:31:40;;;;;;;3.17;1.80;;;18.00;99.90;;;;;;6241059;22;20388;-87
2021/08/04 09:34:29;;;;;;;1.85;1.70;;;18.20;99.90;;;;;;6243955;22;20093;-87
2021/08/04 09:37:08;;;;;;;1.90;1.70;;;18.40;99.90;;;;;;6246418;22;20387;-87
2021/08/04 09:39:37;;;;;;;3.08;1.90;;;18.40;99.90;;;;;;6258937;23;20023;-86
2021/08/04 09:42:04;;;;;;;;;;;18.50;99.90;;;;;;6252551;23;20031;-87
2021/08/04 09:44:31;;;;;;;2.30;2.10;;;18.60;99.90;;;;;;6244625;23;20243;-87
2021/08/04 09:47:10;;;;;;;1.73;1.63;;;18.80;99.90;;;;;;6247106;22;20040;-87
2021/08/04 09:49:39;;;;;;;3.28;1.88;;;19.00;99.90;;;;;;6244677;23;20020;-87
2021/08/04 09:52:10;;;;;;;;;;;19.10;99.90;;;;;;6246744;22;20023;-87
2021/08/04 09:54:41;;;;;;;2.88;2.22;;;19.10;99.90;;;;;;6246838;22;20338;-86
2021/08/04 09:57:09;;;;;;;2.95;2.25;;;19.10;99.90;;;;;;6244931;22;20362;-86
2021/08/04 09:59:37;;;;;;;2.50;2.08;;;19.10;99.90;;;;;;6245417;23;20024;-87
2021/08/04 10:02:24;;;;;;;5.13;1.70;;;19.20;99.90;;;;;;6246397;22;20523;-86
2021/08/04 10:05:17;;;;;;;3.30;1.60;;;19.30;99.90;;;;;;6245674;23;20733;-87
2021/08/04 10:08:01;;;;;;;1.67;1.20;;;19.40;99.90;;;;;;6245089;23;20091;-87
2021/08/04 10:10:32;;;;;;;2.10;1.50;;;19.40;99.90;;;;;;6246250;22;20081;-86
2021/08/04 10:13:01;;;;;;;1.88;1.40;;;19.30;99.90;;;;;;6245076;23;20020;-86
2021/08/04 10:15:31;;;;;;;2.92;1.35;;;19.30;99.90;;;;;;6245201;22;20024;-87
2021/08/04 10:18:01;;;;;;;1.92;1.40;;;19.30;99.90;;;;;;6247695;23;20040;-86
2021/08/04 10:20:29;;;;;;;1.55;1.38;;;19.20;99.90;;;;;;6244879;22;20016;-86
2021/08/04 10:22:57;;;;;;;2.20;1.60;;;19.30;99.90;;;;;;6246639;22;20775;-86
2021/08/04 10:25:24;;;;;;;1.50;1.40;;;19.40;99.90;;;;;;6244371;22;20448;-86
2021/08/04 10:27:51;;;;;;;1.67;1.23;;;19.60;99.90;;;;;;6246638;22;20336;-86
2021/08/04 10:30:18;;;;;;;2.45;1.13;;;19.80;99.90;;;;;;6244183;22;20042;-86
2021/08/04 10:32:46;;;;;;;1.77;0.95;;;20.00;99.90;;;;;;6245339;23;20028;-85
2021/08/04 10:35:16;;;;;;;2.40;1.40;;;20.10;99.90;;;;;;6244686;22;20020;-86
2021/08/04 10:37:44;;;;;;;1.73;1.63;;;20.20;99.90;;;;;;6244800;23;20024;-86
2021/08/04 10:40:12;;;;;;;1.80;1.70;;;20.10;99.90;;;;;;6245728;22;20043;-85
2021/08/04 10:42:41;;;;;;;3.00;1.70;;;20.10;99.90;;;;;;6244567;23;20332;-86
2021/08/04 10:45:23;;;;;;;2.00;1.70;;;20.00;99.90;;;;;;6245646;22;20031;-86
2021/08/04 10:47:51;;;;;;;3.03;1.95;;;20.00;99.90;;;;;;6245843;22;20023;-86
2021/08/04 10:50:19;;;;;;;2.40;1.77;;;20.10;99.90;;;;;;6246187;22;20293;-86
2021/08/04 10:52:58;;;;;;;1.98;1.80;;;20.10;99.90;;;;;;6245011;23;20026;-86
2021/08/04 10:55:30;;;;;;;2.08;1.60;;;20.10;99.90;;;;;;6245182;22;20024;-86
2021/08/04 10:58:07;;;;;;;2.00;1.58;;;20.00;99.90;;;;;;6253086;23;20034;-84
2021/08/04 11:00:37;;;;;;;2.22;1.45;;;20.10;99.90;;;;;;6247361;22;20071;-86
2021/08/04 11:03:41;;;;;;;1.77;1.58;;;20.20;99.90;;;;;;6244641;23;20036;-86
2021/08/04 11:06:10;;;;;;;1.20;1.10;;;20.30;99.90;;;;;;6244866;22;20016;-86
2021/08/04 11:08:39;;;;;;;1.70;1.60;;;20.50;99.90;;;;;;6246275;22;20111;-86
2021/08/04 11:11:07;;;;;;;1.92;1.73;;;20.70;99.90;;;;;;6243752;22;20016;-86
2021/08/04 11:13:45;;;;;;;2.60;1.90;;;20.90;99.90;;;;;;6246119;22;20019;-86
2021/08/04 11:16:33;;;;;;;3.78;1.65;;;20.80;99.90;;;;;;6243718;22;20053;-86
2021/08/04 11:19:08;;;;;;;2.77;1.90;;;20.70;99.90;;;;;;6244503;23;20036;-86
2021/08/04 11:21:36;;;;;;;2.85;1.65;;;20.60;99.90;;;;;;6245799;22;20028;-86
2021/08/04 11:24:06;;;;;;;;;;;20.40;99.90;;;;;;6247039;22;20016;-87
2021/08/04 11:26:38;;;;;;;2.15;1.27;;;20.40;99.90;;;;;;6245249;22;19938;-86
2021/08/04 11:29:09;;;;;;;1.42;1.20;;;20.20;99.90;;;;;;6245292;22;20012;-86
2021/08/04 11:31:36;;;;;;;1.60;1.10;;;20.30;99.90;;;;;;6244314;23;20024;-87
2021/08/04 11:34:29;;;;;;;2.95;1.20;;;20.30;99.90;;;;;;6244450;23;20020;-86
2021/08/04 11:37:01;;;;;;;1.95;1.13;;;20.40;99.90;;;;;;6243682;23;20016;-86
2021/08/04 11:39:28;;;;;;;1.70;1.15;;;20.60;99.90;;;;;;6245075;22;20020;-86
2021/08/04 11:41:55;;;;;;;1.15;1.05;;;20.70;99.90;;;;;;6244554;23;20393;-86
2021/08/04 11:44:26;;;;;;;2.00;1.00;;;20.70;99.90;;;;;;6243790;22;20023;-86
2021/08/04 11:47:05;;;;;;;1.10;1.00;;;20.90;99.90;;;;;;6244526;23;20016;-86
2021/08/04 11:49:43;;;;;;;1.40;1.30;;;21.20;99.90;;;;;;6243859;23;20023;-86
2021/08/04 11:52:12;;;;;;;2.08;1.40;;;21.40;99.90;;;;;;6243150;22;20016;-85
2021/08/04 11:55:05;;;;;;;3.10;1.70;;;21.60;99.90;;;;;;6245709;22;20442;-86
2021/08/04 11:57:34;;;;;;;2.42;1.52;;;21.40;99.90;;;;;;6244970;22;20008;-86
2021/08/04 12:00:09;;;;;;;2.42;1.80;;;21.10;99.90;;;;;;6245400;22;20035;-86
2021/08/04 12:02:38;;;;;;;2.47;1.77;;;20.80;99.90;;;;;;6243626;23;20016;-86
2021/08/04 12:05:07;;;;;;;2.85;1.63;;;20.60;99.90;;;;;;6243385;22;20024;-86
2021/08/04 12:07:37;;;;;;;2.55;1.92;;;20.40;99.90;;;;;;6245391;22;20032;-86
2021/08/04 12:10:13;;;;;;;2.38;1.80;;;20.50;99.90;;;;;;6245747;22;20436;-86
2021/08/04 12:12:47;;;;;;;2.22;1.73;;;20.70;99.90;;;;;;6243889;23;20022;-86
2021/08/04 12:15:23;;;;;;;2.25;2.05;;;20.70;99.90;;;;;;6248487;22;20046;-85
2021/08/04 12:18:04;;;;;;;1.77;1.48;;;20.80;99.90;;;;;;6249943;23;20505;-86
2021/08/04 12:20:37;;;;;;;1.60;1.50;;;20.80;99.90;;;;;;6246559;23;20030;-86
2021/08/04 12:23:10;;;;;;;2.15;1.40;;;20.90;99.90;;;;;;6245537;22;20031;-86
2021/08/04 12:25:43;;;;;;;1.48;1.20;;;21.00;99.90;;;;;;6243441;23;20123;-86
2021/08/04 12:28:12;;;;;;;1.67;1.25;;;21.10;99.90;;;;;;6245241;22;20024;-86
2021/08/04 12:30:44;;;;;;;1.38;1.17;;;21.30;99.90;;;;;;6244166;23;20048;-86
2021/08/04 12:33:23;;;;;;;1.42;1.30;;;21.50;99.90;;;;;;6245410;22;20020;-86
2021/08/04 12:39:03;;;;;;;1.63;1.40;;;21.40;99.90;;;;;;6244279;22;20024;-87
2021/08/04 12:41:30;;;;;;;2.28;1.67;;;21.10;99.90;;;;;;6246202;22;20012;-86
2021/08/04 12:43:58;;;;;;;1.92;1.73;;;21.00;99.90;;;;;;6247823;22;20363;-86
2021/08/04 12:46:39;;;;;;;2.53;1.70;;;20.90;99.90;;;;;;6256417;22;20024;-87
2021/08/04 12:49:30;;;;;;;2.40;1.92;;;21.00;99.90;;;;;;6251939;22;20013;-87
2021/08/04 12:52:00;;;;;;;2.47;1.60;;;21.10;99.90;;;;;;6253793;23;20028;-87
2021/08/04 12:54:30;;;;;;;2.10;1.52;;;21.20;99.90;;;;;;6251187;22;20016;-87
2021/08/04 12:56:58;;;;;;;1.95;1.77;;;21.20;99.90;;;;;;6242181;22;20363;-86
2021/08/04 12:59:51;;;;;;;1.58;1.48;;;21.30;99.90;;;;;;6241415;22;20027;-86
2021/08/04 13:02:18;;;;;;;2.25;1.27;;;21.30;99.90;;;;;;6238634;22;20026;-86
2021/08/04 13:05:05;;;;;;;1.80;1.70;;;21.50;99.90;;;;;;6242645;23;20095;-86
2021/08/04 13:07:42;;;;;;;2.72;1.70;;;21.60;99.90;;;;;;6244236;22;20022;-87